• Join FlightAware (Why Join?)
  • Login
  • US Flag 
07:20PM EDT


 

Airport Tracker/Info


-or-


 

Live Flight TrackerFlight Track Log ✈ BJS439 ✈ 14-Apr-2013 ✈ KJZI - KLAL

Flight Track Log - Related Links

Times and Time Zones

All times are in EDT time to prevent confusion due to time zone crossing. See the BJS439 flight status page for this flight to view local times or setup timezone preferences in your user account.

Time Position Orientation Groundspeed Altitude Reporting Facility
EDT Latitude Longitude Course Direction KTS MPH feet Rate Location/Type
05:43PM 32.6542 -80.0353 211° Southwest 201 231 5,700  Level Jacksonville Center
05:44PM 32.6408 -80.0950 255° West 201 231 8,600 2,520 Climbing Jacksonville Center
05:45PM 32.6156 -80.1822 251° West 238 274 10,800 3,600 Climbing Jacksonville Center
05:47PM 32.5208 -80.3450 235° Southwest 304 350 19,400 3,780 Climbing Jacksonville Center
05:48PM 32.2712 -80.4875 212° Southwest  Level FlightAware Approximate
05:48PM 32.4428 -80.4014 211° Southwest 315 362 22,200  Level Jacksonville Center
05:49PM 32.1811 -80.5527 211° Southwest  Level FlightAware Approximate
05:49PM 32.3542 -80.4628 210° Southwest 345 397 23,000  Level Jacksonville Center
05:50PM 32.2614 -80.5292 211° Southwest 376 433 24,300 1,440 Climbing Jacksonville Center
05:51PM 32.1728 -80.5928 211° Southwest 382 440 25,900 1,440 Climbing Jacksonville Center
05:52PM 32.0717 -80.6617 210° Southwest 387 445 27,200 1,020 Climbing Jacksonville Center
05:53PM 31.9872 -80.7200 210° Southwest 395 455 28,000 360 Climbing Jacksonville Center
05:54PM 31.8861 -80.7908 211° Southwest 396 456 28,000 300 Level Jacksonville Center
05:55PM 31.7953 -80.8517 210° Southwest 396 456 28,700 900 Climbing Jacksonville Center
05:56PM 31.7106 -80.9119 211° Southwest 396 456 29,900 1,020 Climbing Jacksonville Center
05:57PM 31.5989 -80.9850 209° Southwest 410 472 30,800 1,020 Climbing Jacksonville Center
05:58PM 31.4997 -81.0553 211° Southwest 415 478 32,000 600 Climbing Jacksonville Center
05:59PM 31.4108 -81.1156 210° Southwest 415 478 32,000  Level Jacksonville Center
06:00PM 31.3136 -81.1806 210° Southwest 403 464 32,000  Level Jacksonville Center
06:01PM 31.2033 -81.2214 198° South 409 471 32,000  Level Jacksonville Center
06:02PM 31.0933 -81.2575 196° South 414 476 32,000  Level Jacksonville Center
06:03PM 30.9831 -81.2958 197° South 414 476 32,000  Level Jacksonville Center
06:04PM 30.8814 -81.3506 205° Southwest 414 476 32,100 1,320 Climbing Jacksonville Center
06:05PM 30.7819 -81.4056 205° Southwest 408 470 34,700 1,920 Climbing Jacksonville Center
06:06PM 30.6886 -81.4578 206° Southwest 390 449 36,000 600 Climbing Jacksonville Center
06:07PM 30.5847 -81.5100 203° Southwest 390 449 36,000  Level Jacksonville Center
06:08PM 30.4683 -81.5550 198° South 401 461 36,000  Level Jacksonville Center
06:09PM 30.3603 -81.5975 199° South 411 473 36,000  Level Jacksonville Center
06:10PM 30.2478 -81.6350 196° South 417 480 36,000  Level Jacksonville Center
06:11PM 30.1397 -81.6747 198° South 417 480 36,000  Level Jacksonville Center
06:12PM 30.0314 -81.7122 197° South 417 480 36,000  Level Jacksonville Center
06:13PM 29.9253 -81.7639 203° Southwest 417 480 36,000 -300 Level Jacksonville Center
06:14PM 29.8172 -81.8131 202° Southwest 417 480 35,500 -1,500 Descending Jacksonville Center
06:15PM 29.7175 -81.8619 203° Southwest 411 473 33,000 -2,760 Descending Jacksonville Center
06:16PM 29.6261 -81.9250 211° Southwest 398 458 30,000 -2,700 Descending Jacksonville Center
06:17PM 29.5369 -81.9997 216° Southwest 393 452 27,600 -1,920 Descending Jacksonville Center
06:18PM 29.4600 -82.0600 214° Southwest 393 452 26,200 -1,980 Descending Jacksonville Center
06:19PM 29.3706 -82.1158 209° Southwest 381 438 23,700 -2,520 Descending Jacksonville Center
06:20PM 29.2833 -82.1592 203° Southwest 356 410 21,200 -2,400 Descending Jacksonville Center
06:21PM 29.1769 -82.1744 187° South 362 417 19,000 -1,500 Descending Jacksonville Center
06:22PM 29.0808 -82.1844 185° South 367 422 18,300 -720 Descending Jacksonville Center
06:23PM 28.9847 -82.1853 180° South 355 409 17,600 -600 Descending Jacksonville Center
06:24PM 28.8867 -82.1644 169° South 343 395 17,100 -1,200 Descending Jacksonville Center
06:25PM 28.7989 -82.1486 171° South 338 389 15,200 -1,440 Descending Jacksonville Center
06:28PM 28.6000 -82.1167 172° South 282 325 12,300 -1,380 Descending Tampa TRACON
06:29PM 28.5500 -82.1000 164° South 265 305 10,700 -1,920 Descending Tampa TRACON
06:30PM 28.4667 -82.1000 180° South 259 298 8,700 -1,920 Descending Tampa TRACON
06:31PM 28.4000 -82.0833 168° South 257 296 6,900 -1,380 Descending Tampa TRACON
06:32PM 28.3333 -82.1167 204° Southwest 250 288 6,000 -540 Descending Tampa TRACON
06:32PM 28.2667 -82.1167 180° South 257 296 5,900 -1,140 Descending Tampa TRACON
06:33PM 28.2000 -82.0833 156° South 262 302 3,900 -1,560 Descending Tampa TRACON
06:34PM 28.1500 -82.0333 139° Southeast 258 297 3,000 -480 Descending Tampa TRACON
06:35PM 28.1167 -81.9667 120° Southeast 247 284 3,000 -240 Level Tampa TRACON
06:36PM 28.0833 -81.9167 127° Southeast 220 253 2,600 -480 Descending Tampa TRACON